createdAt,value
2023-05-06T00:00:29.529Z,1.40
2023-05-06T00:02:56.993Z,1.50
2023-05-06T00:05:24.364Z,1.70
2023-05-06T00:07:51.871Z,1.70
2023-05-06T00:10:19.637Z,1.50
2023-05-06T00:12:47.153Z,1.50
2023-05-06T00:15:14.519Z,1.60
2023-05-06T00:17:41.961Z,1.70
2023-05-06T00:20:10.696Z,1.73
2023-05-06T00:22:38.291Z,1.80
2023-05-06T00:25:06.013Z,1.90
2023-05-06T00:27:33.824Z,1.70
2023-05-06T00:30:01.186Z,1.87
2023-05-06T00:32:28.545Z,1.60
2023-05-06T00:34:55.990Z,1.63
2023-05-06T00:37:23.428Z,1.90
2023-05-06T00:39:50.910Z,1.70
2023-05-06T00:42:30.336Z,1.70
2023-05-06T00:44:58.060Z,1.70
2023-05-06T00:47:26.047Z,1.70
2023-05-06T00:49:54.012Z,1.60
2023-05-06T00:52:21.619Z,1.73
2023-05-06T00:54:49.954Z,1.60
2023-05-06T00:57:17.446Z,1.73
2023-05-06T00:59:45.003Z,1.60
2023-05-06T01:02:12.513Z,1.60
2023-05-06T01:04:41.625Z,1.50
2023-05-06T01:07:39.377Z,1.50
2023-05-06T01:10:28.094Z,1.80
2023-05-06T01:13:17.786Z,1.30
2023-05-06T01:15:54.090Z,1.43
2023-05-06T01:18:23.516Z,1.57
2023-05-06T01:20:54.027Z,1.30
2023-05-06T01:23:21.595Z,1.60
2023-05-06T01:25:48.921Z,1.23
2023-05-06T01:28:16.413Z,1.60
2023-05-06T01:30:55.902Z,1.40
2023-05-06T01:33:45.332Z,1.50
2023-05-06T01:36:48.834Z,1.60
2023-05-06T01:39:25.570Z,1.20
2023-05-06T01:41:57.348Z,1.67
2023-05-06T01:44:27.833Z,1.40
2023-05-06T01:46:57.389Z,1.70
2023-05-06T01:49:26.421Z,2.20
2023-05-06T01:51:54.265Z,1.90
2023-05-06T01:54:21.830Z,1.83
2023-05-06T01:56:49.238Z,1.80
2023-05-06T01:59:16.777Z,1.90
2023-05-06T02:01:44.157Z,1.60
2023-05-06T02:04:11.657Z,1.60
2023-05-06T02:06:39.099Z,1.33
2023-05-06T02:09:06.548Z,1.53
2023-05-06T02:11:33.906Z,1.60
2023-05-06T02:14:02.272Z,1.57
2023-05-06T02:16:29.792Z,1.33
2023-05-06T02:18:57.241Z,1.73
2023-05-06T02:21:24.687Z,1.83
2023-05-06T02:23:52.270Z,1.50
2023-05-06T02:26:19.659Z,1.40
2023-05-06T02:28:47.110Z,1.73
2023-05-06T02:31:17.705Z,1.50
2023-05-06T02:33:46.061Z,1.67
2023-05-06T02:36:13.533Z,1.50
2023-05-06T02:38:40.989Z,1.50
2023-05-06T02:41:08.435Z,1.50
2023-05-06T02:43:35.979Z,1.50
2023-05-06T02:46:03.808Z,1.50
2023-05-06T02:48:31.366Z,1.87
2023-05-06T02:50:58.904Z,1.30
2023-05-06T02:53:26.208Z,1.57
2023-05-06T02:55:53.702Z,1.60
2023-05-06T02:58:21.196Z,1.70
2023-05-06T03:00:48.684Z,1.60
2023-05-06T03:03:16.273Z,1.50
2023-05-06T03:05:43.655Z,1.60
2023-05-06T03:08:11.047Z,1.47
2023-05-06T03:10:38.405Z,1.77
2023-05-06T03:13:06.258Z,1.30
2023-05-06T03:15:33.857Z,1.47
2023-05-06T03:18:01.353Z,1.63
2023-05-06T03:20:28.969Z,1.50
2023-05-06T03:22:56.815Z,1.60
2023-05-06T03:25:24.820Z,1.43
2023-05-06T03:27:52.230Z,1.50
2023-05-06T03:30:20.076Z,1.33
2023-05-06T03:32:49.204Z,1.33
2023-05-06T03:35:17.440Z,1.27
2023-05-06T03:37:44.799Z,1.60
2023-05-06T03:40:12.522Z,1.73
2023-05-06T03:42:39.895Z,1.67
2023-05-06T03:45:07.918Z,1.60
2023-05-06T03:47:35.852Z,1.40
2023-05-06T03:50:03.317Z,1.40
2023-05-06T03:52:31.185Z,1.47
2023-05-06T03:54:58.647Z,1.40
2023-05-06T03:57:26.107Z,1.60
2023-05-06T03:59:53.859Z,1.60
2023-05-06T04:02:22.388Z,1.50
2023-05-06T04:04:49.924Z,1.60
2023-05-06T04:07:17.312Z,1.30
2023-05-06T04:09:44.683Z,1.43
2023-05-06T04:12:12.143Z,1.30
2023-05-06T04:14:40.193Z,1.40
2023-05-06T04:17:07.668Z,1.43
2023-05-06T04:19:35.113Z,1.60
2023-05-06T04:22:02.472Z,1.77
2023-05-06T04:24:31.617Z,1.83
2023-05-06T04:26:59.281Z,1.50
2023-05-06T04:29:27.167Z,2.00
2023-05-06T04:31:55.283Z,1.83
2023-05-06T04:34:22.827Z,1.40
2023-05-06T04:36:50.129Z,1.40
2023-05-06T04:39:18.247Z,1.80
2023-05-06T04:41:46.258Z,1.40
2023-05-06T04:44:13.670Z,1.73
2023-05-06T04:46:41.000Z,1.53
2023-05-06T04:49:08.671Z,1.45
2023-05-06T04:51:36.219Z,1.57
2023-05-06T04:54:03.872Z,1.30
2023-05-06T04:56:31.362Z,1.20
2023-05-06T04:58:58.770Z,1.45
2023-05-06T05:01:26.593Z,1.30
2023-05-06T05:03:53.990Z,1.20
2023-05-06T05:06:21.330Z,1.30
2023-05-06T05:08:48.796Z,1.40
2023-05-06T05:11:16.814Z,1.20
2023-05-06T05:13:44.230Z,1.50
2023-05-06T05:16:11.589Z,1.77
2023-05-06T05:18:38.913Z,1.50
2023-05-06T05:21:06.694Z,1.10
2023-05-06T05:23:34.221Z,1.20
2023-05-06T05:26:01.976Z,1.20
2023-05-06T05:28:29.310Z,1.23
2023-05-06T05:31:03.295Z,1.30
2023-05-06T05:33:31.026Z,1.20
2023-05-06T05:35:58.768Z,1.20
2023-05-06T05:38:26.435Z,1.10
2023-05-06T05:40:53.882Z,1.17
2023-05-06T05:43:22.823Z,1.20
2023-05-06T05:45:50.227Z,1.10
2023-05-06T05:48:17.696Z,1.17
2023-05-06T05:50:46.199Z,1.20
2023-05-06T05:53:13.513Z,1.20
2023-05-06T05:55:40.952Z,1.10
2023-05-06T05:58:10.812Z,1.15
2023-05-06T06:00:38.225Z,1.15
2023-05-06T06:03:05.800Z,0.90
2023-05-06T06:05:33.518Z,1.30
2023-05-06T06:08:03.451Z,0.93
2023-05-06T06:10:31.279Z,1.00
2023-05-06T06:12:58.635Z,0.93
2023-05-06T06:15:26.137Z,1.10
2023-05-06T06:17:54.947Z,1.10
2023-05-06T06:20:22.365Z,1.10
2023-05-06T06:22:50.803Z,1.00
2023-05-06T06:25:18.540Z,0.85
2023-05-06T06:27:46.041Z,1.00
2023-05-06T06:30:14.636Z,0.98
2023-05-06T06:32:53.238Z,0.77
2023-05-06T06:35:20.770Z,1.02
2023-05-06T06:37:48.322Z,0.90
2023-05-06T06:40:16.353Z,1.10
2023-05-06T06:42:43.850Z,1.00
2023-05-06T06:45:11.952Z,1.10
2023-05-06T06:47:39.588Z,1.08
2023-05-06T06:50:08.424Z,1.15
2023-05-06T06:52:36.154Z,0.82
2023-05-06T06:55:03.979Z,1.02
2023-05-06T06:57:31.464Z,0.93
2023-05-06T07:00:01.886Z,0.95
2023-05-06T07:02:29.529Z,0.90
2023-05-06T07:04:56.954Z,1.00
2023-05-06T07:07:24.594Z,0.98
2023-05-06T07:09:52.109Z,1.10
2023-05-06T07:12:20.761Z,0.90
2023-05-06T07:14:48.113Z,1.00
2023-05-06T07:17:15.550Z,0.80
2023-05-06T07:19:42.874Z,0.90
2023-05-06T07:22:10.597Z,1.00
2023-05-06T07:24:38.105Z,0.90
2023-05-06T07:27:05.558Z,0.88
2023-05-06T07:29:33.128Z,1.00
2023-05-06T07:32:00.919Z,1.10
2023-05-06T07:34:28.307Z,1.00
2023-05-06T07:36:56.042Z,0.90
2023-05-06T07:39:23.348Z,1.00
2023-05-06T07:41:51.782Z,1.15
2023-05-06T07:44:19.163Z,0.90
2023-05-06T07:46:46.592Z,0.80
2023-05-06T07:49:14.235Z,0.90
2023-05-06T07:51:43.110Z,0.90
2023-05-06T07:54:11.392Z,1.00
2023-05-06T07:56:38.857Z,1.00
2023-05-06T07:59:06.376Z,0.82
2023-05-06T08:01:33.848Z,0.93
2023-05-06T08:04:01.384Z,1.00
2023-05-06T08:06:28.748Z,1.27
2023-05-06T08:08:56.131Z,0.90
2023-05-06T08:11:23.829Z,0.90
2023-05-06T08:13:51.247Z,1.00
2023-05-06T08:16:19.006Z,1.10
2023-05-06T08:18:46.581Z,1.13
2023-05-06T08:21:13.886Z,0.90
2023-05-06T08:23:41.463Z,0.65
2023-05-06T08:26:08.792Z,0.93
2023-05-06T08:28:36.933Z,0.90
2023-05-06T08:31:04.279Z,0.90
2023-05-06T08:33:31.707Z,0.90
2023-05-06T08:35:59.325Z,0.77
2023-05-06T08:38:27.262Z,1.05
2023-05-06T08:40:55.139Z,1.00
2023-05-06T08:43:26.196Z,0.85
2023-05-06T08:45:54.117Z,0.82
2023-05-06T08:48:21.492Z,0.90
2023-05-06T08:50:49.717Z,0.90
2023-05-06T08:53:17.623Z,1.15
2023-05-06T08:55:45.481Z,1.40
2023-05-06T08:58:16.150Z,1.40
2023-05-06T09:00:44.482Z,1.48
2023-05-06T09:03:12.150Z,1.20
2023-05-06T09:05:39.568Z,1.13
2023-05-06T09:08:07.041Z,1.30
2023-05-06T09:10:47.497Z,1.25
2023-05-06T09:13:17.617Z,1.63
2023-05-06T09:15:49.649Z,1.40
2023-05-06T09:18:17.289Z,1.80
2023-05-06T09:20:47.405Z,1.45
2023-05-06T09:23:17.963Z,1.30
2023-05-06T09:25:47.760Z,1.30
2023-05-06T09:28:15.476Z,1.50
2023-05-06T09:30:45.163Z,1.23
2023-05-06T09:33:12.636Z,1.55
2023-05-06T09:35:42.461Z,1.40
2023-05-06T09:38:10.731Z,1.52
2023-05-06T09:40:39.104Z,1.50
2023-05-06T09:43:06.936Z,1.40
2023-05-06T09:45:34.373Z,1.40
2023-05-06T09:48:02.101Z,1.70
2023-05-06T09:50:29.421Z,1.38
2023-05-06T09:52:57.137Z,1.40
2023-05-06T09:55:27.365Z,1.40
2023-05-06T09:57:55.587Z,1.33
2023-05-06T10:00:28.358Z,1.40
2023-05-06T10:02:57.274Z,1.30
2023-05-06T10:05:26.471Z,1.42
2023-05-06T10:07:56.364Z,1.42
2023-05-06T10:10:26.993Z,1.30
2023-05-06T10:12:54.704Z,1.55
2023-05-06T10:15:22.969Z,1.13
2023-05-06T10:17:53.272Z,1.40
2023-05-06T10:20:24.104Z,1.35
2023-05-06T10:23:22.630Z,1.35
2023-05-06T10:25:56.283Z,1.33
2023-05-06T10:28:30.658Z,1.40
2023-05-06T10:30:59.992Z,1.25
2023-05-06T10:33:28.782Z,1.20
2023-05-06T10:36:05.217Z,1.40
2023-05-06T10:38:44.266Z,1.30
2023-05-06T10:41:14.012Z,1.40
2023-05-06T10:43:43.443Z,1.25
2023-05-06T10:46:15.316Z,1.20
2023-05-06T10:49:04.983Z,1.10
2023-05-06T10:51:33.560Z,1.30
2023-05-06T10:54:07.349Z,1.25
2023-05-06T10:56:35.822Z,1.35
2023-05-06T10:59:09.003Z,1.10
2023-05-06T11:01:44.128Z,1.17
2023-05-06T11:04:13.510Z,1.30
2023-05-06T11:07:11.468Z,1.30
2023-05-06T11:09:59.652Z,1.20
2023-05-06T11:12:53.908Z,1.50
2023-05-06T11:15:41.397Z,1.10
2023-05-06T11:18:32.282Z,1.10
2023-05-06T11:21:03.049Z,1.20
2023-05-06T11:23:43.382Z,1.10
2023-05-06T11:26:12.104Z,1.10
2023-05-06T11:28:50.586Z,0.90
2023-05-06T11:31:18.226Z,1.27
2023-05-06T11:33:47.213Z,1.13
2023-05-06T11:36:16.681Z,1.10
2023-05-06T11:38:45.824Z,1.20
2023-05-06T11:41:13.751Z,1.10
2023-05-06T11:43:47.175Z,1.13
2023-05-06T11:46:14.742Z,1.33
2023-05-06T11:48:44.092Z,0.95
2023-05-06T11:51:11.477Z,1.25
2023-05-06T11:53:38.956Z,1.00
2023-05-06T11:56:07.380Z,1.10
2023-05-06T11:58:34.779Z,1.17
2023-05-06T12:01:04.242Z,1.10
2023-05-06T12:03:33.202Z,1.20
2023-05-06T12:06:01.520Z,1.00
2023-05-06T12:08:37.382Z,1.05
2023-05-06T12:11:08.142Z,1.00
2023-05-06T12:13:37.145Z,1.10
2023-05-06T12:16:05.987Z,0.98
2023-05-06T12:18:33.635Z,1.00
2023-05-06T12:21:04.390Z,1.00
2023-05-06T12:23:31.823Z,0.93
2023-05-06T12:26:08.525Z,1.00
2023-05-06T12:28:36.994Z,1.60
2023-05-06T12:31:24.294Z,1.10
2023-05-06T12:33:51.794Z,1.20
2023-05-06T12:36:19.897Z,1.00
2023-05-06T12:38:55.275Z,1.35
2023-05-06T12:41:24.103Z,0.95
2023-05-06T12:43:53.012Z,1.00
2023-05-06T12:46:20.553Z,1.00
2023-05-06T12:48:58.497Z,1.10
2023-05-06T12:51:27.130Z,1.10
2023-05-06T12:53:55.169Z,1.05
2023-05-06T12:56:23.267Z,1.02
2023-05-06T12:59:03.762Z,0.95
2023-05-06T13:01:31.769Z,1.02
2023-05-06T13:03:59.486Z,1.35
2023-05-06T13:06:26.947Z,0.90
2023-05-06T13:08:54.304Z,1.10
2023-05-06T13:11:22.326Z,1.10
2023-05-06T13:13:49.754Z,1.20
2023-05-06T13:16:17.162Z,1.02
2023-05-06T13:18:44.633Z,1.00
2023-05-06T13:21:13.764Z,0.90
2023-05-06T13:23:47.027Z,1.00
2023-05-06T13:26:15.228Z,1.10
2023-05-06T13:28:42.647Z,0.80
2023-05-06T13:31:10.213Z,1.00
2023-05-06T13:33:37.885Z,0.90
2023-05-06T13:36:05.898Z,1.08
2023-05-06T13:38:33.313Z,0.82
2023-05-06T13:41:00.859Z,1.00
2023-05-06T13:43:28.218Z,0.80
2023-05-06T13:45:55.830Z,1.10
2023-05-06T13:48:23.331Z,0.90
2023-05-06T13:50:51.226Z,1.05
2023-05-06T13:53:19.932Z,1.10
2023-05-06T13:55:47.683Z,1.00
2023-05-06T13:58:15.122Z,0.90
2023-05-06T14:00:42.604Z,1.17
2023-05-06T14:03:09.996Z,0.90
2023-05-06T14:05:37.416Z,0.80
2023-05-06T14:08:05.038Z,1.00
2023-05-06T14:10:32.526Z,1.00
2023-05-06T14:12:59.947Z,0.90
2023-05-06T14:15:27.246Z,0.80
2023-05-06T14:17:54.805Z,0.80
2023-05-06T14:20:22.192Z,1.08
2023-05-06T14:22:50.049Z,1.20
2023-05-06T14:25:17.438Z,1.10
2023-05-06T14:27:45.951Z,1.00
2023-05-06T14:30:13.722Z,0.70
2023-05-06T14:32:41.035Z,1.10
2023-05-06T14:35:09.339Z,0.90
2023-05-06T14:37:37.920Z,1.00
2023-05-06T14:40:06.964Z,0.90
2023-05-06T14:42:36.027Z,1.08
2023-05-06T14:45:04.033Z,1.08
2023-05-06T14:47:31.960Z,1.10
2023-05-06T14:49:59.540Z,1.20
2023-05-06T14:52:27.133Z,1.10
2023-05-06T14:54:54.474Z,1.00
2023-05-06T14:57:22.585Z,1.00
2023-05-06T14:59:50.956Z,1.10
2023-05-06T15:02:18.514Z,1.00
2023-05-06T15:04:46.293Z,1.00
2023-05-06T15:07:13.631Z,1.00
2023-05-06T15:09:44.048Z,0.90
2023-05-06T15:12:11.956Z,1.00
2023-05-06T15:14:42.220Z,1.10
2023-05-06T15:17:10.063Z,1.20
2023-05-06T15:19:38.026Z,1.23
2023-05-06T15:22:05.515Z,0.88
2023-05-06T15:24:33.390Z,1.00
2023-05-06T15:27:00.935Z,1.13
2023-05-06T15:29:30.099Z,1.17
2023-05-06T15:31:57.616Z,1.15
2023-05-06T15:34:25.087Z,1.00
2023-05-06T15:36:53.577Z,1.10
2023-05-06T15:39:21.437Z,1.05
2023-05-06T15:41:48.874Z,1.20
2023-05-06T15:44:16.550Z,1.17
2023-05-06T15:46:44.291Z,1.02
2023-05-06T15:49:46.665Z,1.30
2023-05-06T15:52:01.100Z,1.20
2023-05-06T15:54:29.014Z,1.10
2023-05-06T15:56:56.949Z,1.33
2023-05-06T15:59:24.437Z,1.10
2023-05-06T16:02:25.736Z,0.98
2023-05-06T16:04:39.505Z,1.35
2023-05-06T16:07:07.820Z,1.00
2023-05-06T16:09:35.183Z,1.20
2023-05-06T16:12:02.634Z,1.30
2023-05-06T16:14:29.997Z,1.30
2023-05-06T16:16:58.475Z,1.10
2023-05-06T16:19:26.407Z,1.10
2023-05-06T16:21:54.615Z,1.50
2023-05-06T16:24:22.022Z,1.23
2023-05-06T16:26:49.546Z,1.20
2023-05-06T16:29:19.126Z,1.20
2023-05-06T16:31:47.373Z,1.20
2023-05-06T16:34:15.124Z,1.17
2023-05-06T16:36:43.090Z,1.00
2023-05-06T16:39:10.842Z,1.10
2023-05-06T16:41:38.170Z,1.30
2023-05-06T16:44:05.799Z,1.15
2023-05-06T16:46:33.524Z,1.10
2023-05-06T16:49:03.677Z,1.10
2023-05-06T16:51:32.144Z,1.10
2023-05-06T16:53:59.580Z,1.30
2023-05-06T16:56:36.611Z,2.10
2023-05-06T16:59:07.826Z,1.20
2023-05-06T17:01:35.201Z,1.20
2023-05-06T17:04:02.779Z,0.95
2023-05-06T17:06:31.720Z,1.00
2023-05-06T17:08:59.353Z,0.98
2023-05-06T17:11:26.734Z,0.93
2023-05-06T17:13:54.612Z,1.20
2023-05-06T17:16:22.982Z,1.20
2023-05-06T17:18:50.283Z,1.23
2023-05-06T17:21:18.063Z,1.20
2023-05-06T17:23:45.424Z,1.10
2023-05-06T17:26:12.927Z,1.30
2023-05-06T17:28:40.496Z,1.23
2023-05-06T17:31:07.952Z,1.20
2023-05-06T17:33:35.537Z,1.10
2023-05-06T17:36:03.274Z,1.20
2023-05-06T17:38:30.707Z,1.00
2023-05-06T17:40:58.085Z,1.13
2023-05-06T17:43:25.432Z,1.20
2023-05-06T17:45:52.925Z,1.27
2023-05-06T17:48:20.436Z,1.80
2023-05-06T17:50:47.957Z,1.30
2023-05-06T17:53:15.391Z,1.33
2023-05-06T17:55:42.861Z,1.20
2023-05-06T17:58:10.232Z,1.30
2023-05-06T18:00:38.305Z,1.50
2023-05-06T18:03:05.880Z,1.20
2023-05-06T18:05:33.375Z,1.27
2023-05-06T18:08:00.907Z,1.20
2023-05-06T18:10:28.359Z,1.30
2023-05-06T18:12:57.549Z,1.30
2023-05-06T18:15:26.114Z,1.40
2023-05-06T18:17:53.851Z,1.45
2023-05-06T18:20:21.338Z,2.03
2023-05-06T18:22:48.952Z,2.03
2023-05-06T18:25:16.772Z,2.00
2023-05-06T18:27:44.257Z,1.92
2023-05-06T18:30:11.945Z,1.60
2023-05-06T18:32:39.274Z,1.35
2023-05-06T18:35:07.004Z,1.30
2023-05-06T18:37:34.498Z,1.13
2023-05-06T18:40:02.044Z,1.45
2023-05-06T18:42:29.559Z,1.33
2023-05-06T18:44:57.706Z,1.50
2023-05-06T18:47:25.748Z,1.50
2023-05-06T18:49:53.646Z,1.30
2023-05-06T18:52:21.946Z,1.63
2023-05-06T18:54:49.250Z,1.50
2023-05-06T18:57:16.684Z,1.60
2023-05-06T18:59:44.010Z,1.60
2023-05-06T19:02:11.765Z,1.60
2023-05-06T19:04:39.103Z,1.50
2023-05-06T19:07:06.557Z,1.63
2023-05-06T19:09:36.965Z,1.25
2023-05-06T19:12:04.642Z,1.20
2023-05-06T19:14:32.782Z,1.25
2023-05-06T19:17:01.064Z,1.30
2023-05-06T19:19:28.657Z,1.50
2023-05-06T19:21:57.460Z,1.70
2023-05-06T19:24:25.027Z,1.83
2023-05-06T19:26:52.705Z,1.80
2023-05-06T19:29:20.011Z,1.83
2023-05-06T19:31:47.512Z,1.77
2023-05-06T19:34:14.910Z,1.88
2023-05-06T19:36:42.319Z,1.80
2023-05-06T19:39:09.803Z,1.73
2023-05-06T19:41:37.346Z,1.63
2023-05-06T19:44:04.860Z,2.13
2023-05-06T19:46:32.459Z,1.58
2023-05-06T19:49:01.395Z,1.75
2023-05-06T19:51:28.847Z,1.70
2023-05-06T19:53:56.365Z,1.67
2023-05-06T19:56:23.688Z,1.67
2023-05-06T19:58:54.061Z,2.10
2023-05-06T20:01:22.945Z,1.83
2023-05-06T20:03:50.421Z,1.90
2023-05-06T20:06:17.925Z,1.77
2023-05-06T20:08:45.325Z,1.67
2023-05-06T20:11:12.875Z,2.05
2023-05-06T20:13:40.483Z,1.80
2023-05-06T20:16:08.015Z,1.90
2023-05-06T20:18:35.929Z,1.77
2023-05-06T20:21:03.256Z,1.75
2023-05-06T20:23:31.193Z,1.92
2023-05-06T20:25:58.660Z,2.00
2023-05-06T20:28:26.905Z,1.58
2023-05-06T20:30:55.594Z,1.55
2023-05-06T20:33:23.320Z,1.60
2023-05-06T20:35:51.037Z,1.45
2023-05-06T20:38:19.522Z,1.70
2023-05-06T20:40:48.029Z,1.90
2023-05-06T20:43:15.631Z,1.60
2023-05-06T20:45:43.067Z,1.70
2023-05-06T20:48:11.764Z,1.50
2023-05-06T20:50:40.332Z,1.88
2023-05-06T20:53:07.943Z,1.60
2023-05-06T20:55:35.478Z,1.73
2023-05-06T20:58:02.862Z,1.88
2023-05-06T21:00:30.338Z,1.67
2023-05-06T21:02:57.775Z,1.67
2023-05-06T21:05:25.238Z,2.00
2023-05-06T21:07:52.725Z,1.98
2023-05-06T21:10:20.526Z,1.60
2023-05-06T21:12:54.371Z,1.38
2023-05-06T21:15:21.978Z,1.73
2023-05-06T21:17:49.797Z,1.70
2023-05-06T21:20:17.315Z,1.60
2023-05-06T21:22:44.780Z,1.83
2023-05-06T21:25:13.505Z,1.35
2023-05-06T21:27:41.029Z,1.65
2023-05-06T21:30:09.304Z,1.73
2023-05-06T21:32:36.768Z,1.98
2023-05-06T21:35:04.613Z,1.70
2023-05-06T21:37:32.049Z,1.80
2023-05-06T21:40:00.163Z,0.98
2023-05-06T21:42:27.899Z,1.90
2023-05-06T21:44:55.212Z,1.40
2023-05-06T21:47:22.545Z,1.27
2023-05-06T21:49:49.899Z,1.50
2023-05-06T21:52:17.247Z,1.30
2023-05-06T21:54:46.449Z,1.03
2023-05-06T21:57:13.995Z,1.58
2023-05-06T21:59:41.600Z,1.53
2023-05-06T22:02:09.145Z,1.60
2023-05-06T22:04:36.581Z,1.30
2023-05-06T22:07:03.883Z,1.13
2023-05-06T22:09:31.318Z,0.65
2023-05-06T22:11:58.734Z,1.40
2023-05-06T22:14:30.191Z,1.43
2023-05-06T22:17:01.786Z,1.40
2023-05-06T22:19:29.208Z,1.53
2023-05-06T22:21:57.784Z,1.33
2023-05-06T22:24:26.081Z,1.23
2023-05-06T22:26:53.613Z,1.10
2023-05-06T22:29:20.934Z,1.10
2023-05-06T22:31:48.398Z,1.50
2023-05-06T22:34:15.779Z,1.27
2023-05-06T22:36:43.120Z,1.30
2023-05-06T22:39:10.755Z,1.03
2023-05-06T22:41:38.251Z,1.70
2023-05-06T22:44:05.855Z,1.40
2023-05-06T22:46:33.371Z,1.30
2023-05-06T22:49:00.718Z,1.30
2023-05-06T22:51:28.163Z,1.40
2023-05-06T22:53:55.484Z,1.50
2023-05-06T22:56:23.269Z,1.50
2023-05-06T22:58:50.817Z,1.20
2023-05-06T23:01:18.364Z,1.27
2023-05-06T23:03:45.741Z,1.33
2023-05-06T23:06:13.160Z,1.50
2023-05-06T23:08:40.870Z,1.70
2023-05-06T23:11:08.235Z,1.60
2023-05-06T23:13:36.563Z,1.60
2023-05-06T23:16:04.294Z,1.60
2023-05-06T23:18:31.723Z,1.70
2023-05-06T23:20:59.178Z,1.63
2023-05-06T23:23:26.557Z,1.70
2023-05-06T23:25:53.966Z,1.30
2023-05-06T23:28:21.297Z,1.60
2023-05-06T23:30:48.826Z,1.50
2023-05-06T23:33:16.339Z,1.53
2023-05-06T23:35:44.904Z,1.60
2023-05-06T23:38:12.264Z,1.63
2023-05-06T23:40:39.674Z,1.40
2023-05-06T23:43:09.959Z,1.60
2023-05-06T23:45:38.045Z,1.60
2023-05-06T23:48:05.937Z,1.10
2023-05-06T23:50:33.532Z,1.40
2023-05-06T23:53:01.362Z,1.20
2023-05-06T23:55:29.508Z,1.33
2023-05-06T23:57:57.002Z,1.03
